Terminal Aerodrome Forecast
Issued by NWS Flagstaff, AZ

Home | Current Version | Previous Version | Text Only | Print | Product List | Glossary On
Versions: 1 2 3 4 5 6 7 8 9 10 11 12 13 14 15 16 17
288
FTUS45 KFGZ 241739
TAFINW
TAF
KINW 241739Z 2418/2518 26011KT P6SM FEW040
     FM242000 23017G23KT P6SM BKN040
     FM250200 23009KT P6SM BKN060=

USA.gov is the U.S. government's official web portal to all federal, state and local government web resources and services.